Time;durP1;ratioP1;P1;durP2;ratioP2;P2;SDS_P1;SDS_P2;PMS_P1;PMS_P2;Temp;Humidity;BMP_temperature;BMP_pressure;BME280_temperature;BME280_humidity;BME280_pressure;Samples;Min_cycle;Max_cycle;Signal;HPM_P1;HPM_P2
2023/12/29 00:01:36;;;;;;;11.68;7.80;;;5.00;99.90;;;;;;5036269;28;20025;-80
2023/12/29 00:14:26;;;;;;;11.80;7.60;;;5.00;99.90;;;;;;5037393;28;20028;-78
2023/12/29 00:17:09;;;;;;;8.98;6.13;;;5.00;99.90;;;;;;5061609;28;20048;-81
2023/12/29 00:23:15;;;;;;;13.68;6.78;;;5.00;99.90;;;;;;5044176;28;20087;-75
2023/12/29 00:26:50;;;;;;;9.18;6.43;;;5.10;99.90;;;;;;4987878;28;20042;-80
2023/12/29 00:29:08;;;;;;;8.00;5.85;;;5.00;99.90;;;;;;5019983;28;20040;-78
2023/12/29 00:35:16;;;;;;;10.75;5.43;;;5.10;99.90;;;;;;4958443;28;20039;-79
2023/12/29 00:38:27;;;;;;;10.13;6.55;;;5.10;99.90;;;;;;5040577;28;20202;-79
2023/12/29 00:40:52;;;;;;;10.77;7.18;;;5.00;99.90;;;;;;5015458;28;20168;-78
2023/12/29 00:43:24;;;;;;;21.77;12.70;;;4.90;99.90;;;;;;5037389;28;20079;-77
2023/12/29 00:46:23;;;;;;;16.33;10.43;;;4.90;99.90;;;;;;5030254;28;20033;-75
2023/12/29 00:49:45;;;;;;;14.82;8.88;;;5.00;99.90;;;;;;5007806;28;20181;-77
2023/12/29 00:52:11;;;;;;;10.80;6.95;;;5.00;99.90;;;;;;5007551;28;20522;-79
2023/12/29 00:54:36;;;;;;;10.15;6.60;;;5.20;99.90;;;;;;5019235;28;20022;-79
2023/12/29 00:57:02;;;;;;;9.52;6.32;;;5.30;99.90;;;;;;5021338;28;20041;-79
2023/12/29 00:59:27;;;;;;;10.95;5.78;;;5.20;99.90;;;;;;5051848;28;20029;-78
2023/12/29 01:01:53;;;;;;;9.18;5.80;;;5.10;99.90;;;;;;5043201;28;20020;-80
2023/12/29 01:04:19;;;;;;;8.13;5.38;;;5.20;99.90;;;;;;5032100;28;20465;-78
2023/12/29 01:06:44;;;;;;;8.80;5.60;;;5.20;99.90;;;;;;5057605;28;20028;-80
2023/12/29 01:09:11;;;;;;;8.35;5.93;;;5.30;99.90;;;;;;5057127;28;20025;-79
2023/12/29 01:11:37;;;;;;;9.20;5.93;;;5.30;99.90;;;;;;5057420;28;20041;-80
2023/12/29 01:14:03;;;;;;;8.25;5.78;;;5.50;99.90;;;;;;5055939;28;20068;-80
2023/12/29 01:16:28;;;;;;;10.02;5.15;;;5.50;99.90;;;;;;5056392;28;20045;-80
2023/12/29 01:18:54;;;;;;;10.00;5.53;;;5.50;99.90;;;;;;5053926;28;20025;-80
2023/12/29 01:21:20;;;;;;;8.32;4.82;;;5.50;99.90;;;;;;5060835;28;20028;-77
2023/12/29 01:23:46;;;;;;;7.18;4.50;;;5.50;99.90;;;;;;5058190;28;20908;-77
2023/12/29 01:26:11;;;;;;;8.20;4.25;;;5.50;99.90;;;;;;5052571;28;20477;-78
2023/12/29 01:28:37;;;;;;;6.15;4.85;;;5.60;99.90;;;;;;5059884;28;20235;-77
2023/12/29 01:31:03;;;;;;;7.15;4.28;;;5.60;99.90;;;;;;5060744;28;20036;-79
2023/12/29 01:33:28;;;;;;;8.20;4.80;;;5.50;99.90;;;;;;5058324;28;20025;-75
2023/12/29 01:35:54;;;;;;;8.18;4.90;;;5.50;99.90;;;;;;5039950;28;20435;-78
2023/12/29 01:38:20;;;;;;;8.07;4.65;;;5.60;99.90;;;;;;5039812;28;20018;-81
2023/12/29 01:40:46;;;;;;;7.65;4.93;;;5.60;99.90;;;;;;5041898;28;20465;-79
2023/12/29 01:43:12;;;;;;;5.55;4.25;;;5.50;99.90;;;;;;5052409;28;20544;-80
2023/12/29 01:46:02;;;;;;;7.10;4.60;;;5.40;99.90;;;;;;5047725;28;20040;-79
2023/12/29 01:48:47;;;;;;;;;;;;;;;;;;;;;
2023/12/29 01:51:14;;;;;;;14.82;6.13;;;5.50;99.90;;;;;;5050864;28;20494;-78
2023/12/29 01:54:12;;;;;;;11.60;5.65;;;5.60;99.90;;;;;;5037715;28;20479;-78
2023/12/29 02:03:18;;;;;;;11.88;7.18;;;5.40;99.90;;;;;;4961092;28;20563;-80
2023/12/29 02:10:35;;;;;;;12.52;6.68;;;5.50;99.90;;;;;;4969763;28;20062;-78
2023/12/29 02:27:15;;;;;;;;;;;;;;;;;;;;;
2023/12/29 02:36:02;;;;;;;19.98;11.73;;;5.40;99.90;;;;;;4820749;29;20030;-81
2023/12/29 02:38:29;;;;;;;26.30;14.73;;;5.40;99.90;;;;;;4814706;29;20035;-81
2023/12/29 02:40:57;;;;;;;26.35;15.20;;;5.40;99.90;;;;;;4922205;29;20039;-81
2023/12/29 02:43:23;;;;;;;26.30;14.07;;;5.40;99.90;;;;;;4991189;28;20034;-82
2023/12/29 02:45:49;;;;;;;23.35;13.45;;;5.40;99.90;;;;;;4997339;28;20099;-82
2023/12/29 02:48:14;;;;;;;24.50;13.77;;;5.40;99.90;;;;;;4997098;28;20096;-81
2023/12/29 02:50:40;;;;;;;20.05;12.70;;;5.40;99.90;;;;;;4996743;28;20627;-80
2023/12/29 02:53:26;;;;;;;24.25;12.50;;;5.40;99.90;;;;;;4996365;28;20038;-80
2023/12/29 02:56:30;;;;;;;;;;;;;;;;;;;;;
2023/12/29 03:12:42;;;;;;;;;;;;;;;;;;;;;
2023/12/29 03:15:11;;;;;;;19.10;11.82;;;5.60;99.90;;;;;;4942355;28;20036;-81
2023/12/29 03:17:46;;;;;;;22.38;12.88;;;5.70;99.90;;;;;;5049662;28;20597;-81
2023/12/29 03:20:13;;;;;;;21.35;12.80;;;5.70;99.90;;;;;;5031689;28;20033;-80
2023/12/29 03:22:39;;;;;;;20.23;12.18;;;5.70;99.90;;;;;;5031285;28;20037;-81
2023/12/29 03:25:05;;;;;;;18.38;11.85;;;5.70;99.90;;;;;;5035410;28;20027;-81
2023/12/29 03:27:31;;;;;;;22.60;11.25;;;5.60;99.90;;;;;;5032375;28;20036;-81
2023/12/29 03:30:35;;;;;;;27.38;15.25;;;5.60;99.90;;;;;;5031202;28;20017;-77
2023/12/29 03:33:27;;;;;;;22.33;12.70;;;5.50;99.90;;;;;;5028538;28;20045;-80
2023/12/29 03:35:53;;;;;;;24.63;13.63;;;5.40;99.90;;;;;;5026595;28;20529;-80
2023/12/29 03:38:18;;;;;;;19.25;12.55;;;5.40;99.90;;;;;;5036149;28;20033;-80
2023/12/29 03:40:44;;;;;;;24.20;13.07;;;5.30;99.90;;;;;;5037886;28;20017;-81
2023/12/29 03:43:10;;;;;;;20.38;11.52;;;5.30;99.90;;;;;;5039510;28;20091;-79
2023/12/29 03:45:36;;;;;;;17.05;9.18;;;5.30;99.90;;;;;;5039114;28;20029;-82
2023/12/29 03:48:02;;;;;;;17.02;10.40;;;5.30;99.90;;;;;;5038202;28;20044;-82
2023/12/29 03:50:27;;;;;;;23.50;12.65;;;5.30;99.90;;;;;;5051937;28;20444;-78
2023/12/29 03:52:53;;;;;;;25.17;12.40;;;5.30;99.90;;;;;;5036103;28;20100;-81
2023/12/29 03:55:18;;;;;;;23.50;13.00;;;5.40;99.90;;;;;;5036327;28;20037;-81
2023/12/29 03:57:44;;;;;;;24.40;12.90;;;5.40;99.90;;;;;;5035478;28;20075;-80
2023/12/29 04:00:14;;;;;;;22.30;12.73;;;5.30;99.90;;;;;;5035526;28;20033;-81
2023/12/29 04:02:40;;;;;;;26.67;14.43;;;5.30;99.90;;;;;;5037101;28;20029;-79
2023/12/29 04:05:10;;;;;;;24.02;12.90;;;5.40;99.90;;;;;;5036281;28;20044;-81
2023/12/29 04:07:36;;;;;;;22.02;12.90;;;5.40;99.90;;;;;;5035603;28;20041;-80
2023/12/29 04:10:12;;;;;;;25.00;13.38;;;5.40;99.90;;;;;;5031304;28;20087;-80
2023/12/29 04:12:38;;;;;;;22.50;11.60;;;5.40;99.90;;;;;;5032551;28;20029;-80
2023/12/29 04:15:04;;;;;;;15.07;9.60;;;5.60;99.90;;;;;;5048847;28;20037;-81
2023/12/29 04:17:30;;;;;;;17.98;10.80;;;5.80;99.90;;;;;;5052850;28;20025;-80
2023/12/29 04:19:56;;;;;;;7.20;4.00;;;5.90;99.90;;;;;;5051520;28;20397;-80
2023/12/29 04:22:22;;;;;;;5.57;3.25;;;6.00;99.90;;;;;;5051771;28;20021;-79
2023/12/29 04:24:47;;;;;;;5.35;3.22;;;6.40;99.90;;;;;;5050093;28;20021;-79
2023/12/29 04:27:14;;;;;;;2.80;2.30;;;7.00;99.90;;;;;;5049614;28;20037;-78
2023/12/29 04:42:54;;;;;;;4.03;2.22;;;8.70;99.90;;;;;;5028337;28;20036;-81
2023/12/29 04:57:37;;;;;;;1.80;1.52;;;9.30;99.90;;;;;;4857814;29;20105;-79
2023/12/29 05:32:54;;;;;;;1.02;1.00;;;9.90;99.90;;;;;;4850860;29;20084;-81
2023/12/29 05:38:46;;;;;;;1.08;1.08;;;9.80;99.90;;;;;;4849370;29;20165;-81
2023/12/29 05:41:14;;;;;;;2.42;1.58;;;9.80;99.90;;;;;;4942711;29;20055;-83
2023/12/29 05:43:39;;;;;;;0.60;0.60;;;9.60;99.90;;;;;;4982042;28;20033;-81
2023/12/29 06:00:15;;;;;;;;;;;;;;;;;;;;;
2023/12/29 06:20:46;;;;;;;0.68;0.68;;;9.20;99.90;;;;;;4775210;30;20054;-82
2023/12/29 06:30:20;;;;;;;1.00;0.90;;;9.50;99.90;;;;;;4807535;29;20058;-82
2023/12/29 06:50:56;;;;;;;1.30;0.70;;;9.50;99.90;;;;;;4760467;30;20067;-79
2023/12/29 06:54:17;;;;;;;1.75;0.70;;;9.60;99.90;;;;;;4762290;30;20108;-78
2023/12/29 06:56:58;;;;;;;0.63;0.63;;;9.60;99.90;;;;;;4755303;30;20056;-80
2023/12/29 06:59:33;;;;;;;0.80;0.80;;;9.70;99.90;;;;;;4787655;29;20404;-81
2023/12/29 07:01:59;;;;;;;0.65;0.65;;;9.70;99.90;;;;;;4829716;29;20485;-81
2023/12/29 07:04:28;;;;;;;0.50;0.50;;;9.80;99.90;;;;;;4901789;29;20044;-80
2023/12/29 07:07:19;;;;;;;0.70;0.63;;;9.40;99.90;;;;;;4899865;29;20025;-81
2023/12/29 07:09:48;;;;;;;2.38;0.60;;;10.00;99.90;;;;;;4867473;29;20038;-82
2023/12/29 08:24:19;;;;;;;0.52;0.50;;;10.50;99.90;;;;;;4711979;30;20150;-83
2023/12/29 08:30:17;;;;;;;1.10;1.02;;;10.40;99.90;;;;;;4739089;30;20133;-82
2023/12/29 08:33:04;;;;;;;0.75;0.73;;;10.30;99.90;;;;;;4751525;30;20024;-81
2023/12/29 08:35:44;;;;;;;1.65;0.70;;;10.40;99.90;;;;;;4909474;29;20123;-80
2023/12/29 08:38:54;;;;;;;1.00;1.00;;;10.40;99.90;;;;;;4999552;28;20041;-82
2023/12/29 08:44:33;;;;;;;0.95;0.95;;;10.40;99.90;;;;;;4910889;29;20071;-80
2023/12/29 08:50:08;;;;;;;0.70;0.70;;;10.50;99.90;;;;;;5012660;28;20041;-78
2023/12/29 08:57:29;;;;;;;;;;;;;;;;;;;;;
2023/12/29 09:28:06;;;;;;;;;;;;;;;;;;;;;
2023/12/29 09:45:12;;;;;;;0.57;0.57;;;11.20;99.90;;;;;;4696050;30;20444;-76
2023/12/29 10:05:07;;;;;;;1.15;0.60;;;11.70;99.90;;;;;;4626659;31;20588;-77
2023/12/29 10:11:46;;;;;;;0.55;0.55;;;11.60;99.90;;;;;;4818887;29;20053;-77
2023/12/29 10:15:10;;;;;;;1.17;0.70;;;11.70;99.90;;;;;;4787695;30;20048;-77
2023/12/29 10:18:08;;;;;;;1.75;0.80;;;11.70;99.90;;;;;;4808480;29;20038;-76
2023/12/29 10:30:55;;;;;;;1.05;0.50;;;11.90;99.90;;;;;;4923916;29;20024;-76
2023/12/29 10:33:24;;;;;;;0.50;0.50;;;11.90;99.90;;;;;;4924374;29;20043;-76
2023/12/29 10:39:27;;;;;;;0.60;0.60;;;11.90;99.90;;;;;;5039842;28;20072;-76
2023/12/29 10:45:10;;;;;;;0.57;0.40;;;12.00;99.90;;;;;;4995894;28;20097;-77
2023/12/29 10:50:25;;;;;;;1.10;0.60;;;12.20;99.90;;;;;;4980100;28;20066;-76
2023/12/29 10:56:21;;;;;;;0.60;0.60;;;12.20;99.90;;;;;;5048765;28;20040;-78
2023/12/29 10:59:06;;;;;;;0.88;0.50;;;12.30;99.90;;;;;;5054903;28;20013;-77
2023/12/29 11:04:46;;;;;;;1.10;0.75;;;12.40;99.90;;;;;;5061642;28;20443;-78
2023/12/29 11:07:16;;;;;;;0.38;0.38;;;12.40;99.90;;;;;;5026520;28;20033;-78
2023/12/29 11:09:45;;;;;;;0.45;0.30;;;12.50;99.90;;;;;;5046051;28;20021;-78
2023/12/29 11:12:25;;;;;;;;;;;;;;;;;;;;;
2023/12/29 11:18:04;;;;;;;0.73;0.73;;;12.60;99.90;;;;;;5055130;28;20347;-78
2023/12/29 12:02:07;;;;;;;3.47;0.70;;;13.60;99.90;;;;;;4750387;30;20028;-78
2023/12/29 12:11:33;;;;;;;0.65;0.60;;;13.40;99.90;;;;;;4861983;29;20394;-77
2023/12/29 12:14:30;;;;;;;0.95;0.77;;;13.40;99.90;;;;;;4864562;29;20323;-78
2023/12/29 12:16:59;;;;;;;0.95;0.95;;;13.30;99.90;;;;;;4886236;29;20029;-79
2023/12/29 12:19:35;;;;;;;1.08;0.93;;;13.30;99.90;;;;;;4993026;28;20037;-79
2023/12/29 12:26:05;;;;;;;0.90;0.90;;;13.20;99.90;;;;;;4996262;28;20100;-78
2023/12/29 12:31:57;;;;;;;1.60;0.50;;;13.20;99.90;;;;;;5038939;28;20095;-78
2023/12/29 12:37:42;;;;;;;2.13;0.82;;;13.20;99.90;;;;;;5013018;28;20100;-78
2023/12/29 12:44:00;;;;;;;;;;;13.40;99.90;;;;;;4998459;28;20045;-78
2023/12/29 12:53:53;;;;;;;2.17;0.60;;;13.80;99.90;;;;;;4998788;28;20372;-78
2023/12/29 12:59:55;;;;;;;0.70;0.70;;;13.70;99.90;;;;;;4943524;28;20030;-78
2023/12/29 13:11:07;;;;;;;0.52;0.52;;;13.60;99.90;;;;;;4954296;28;20061;-78
2023/12/29 13:13:47;;;;;;;0.68;0.68;;;13.70;99.90;;;;;;4968003;28;20043;-78
2023/12/29 13:16:35;;;;;;;2.00;0.77;;;13.70;99.90;;;;;;4983351;28;20083;-77
2023/12/29 13:19:27;;;;;;;1.05;0.60;;;13.60;99.90;;;;;;5017693;28;20026;-78
2023/12/29 13:32:50;;;;;;;0.95;0.90;;;14.40;99.90;;;;;;4954925;28;20065;-78
2023/12/29 13:35:53;;;;;;;1.23;1.13;;;15.10;99.20;;;;;;4954835;28;20370;-78
2023/12/29 13:38:28;;;;;;;1.60;1.50;;;15.30;99.00;;;;;;4957708;28;20019;-79
2023/12/29 13:41:02;;;;;;;1.10;0.95;;;15.60;98.40;;;;;;4987141;28;20093;-78
2023/12/29 13:43:32;;;;;;;1.30;1.10;;;16.10;95.80;;;;;;5003783;28;20085;-78
2023/12/29 13:45:59;;;;;;;1.38;1.00;;;17.00;94.30;;;;;;5004305;28;20049;-78
2023/12/29 13:48:27;;;;;;;0.68;0.65;;;17.20;92.40;;;;;;5000610;28;20026;-78
2023/12/29 13:50:53;;;;;;;1.48;0.90;;;17.20;91.50;;;;;;5000595;28;20035;-78
2023/12/29 13:57:53;;;;;;;0.80;0.80;;;15.60;93.30;;;;;;5002568;28;20104;-78
2023/12/29 14:01:01;;;;;;;2.25;0.82;;;14.90;94.70;;;;;;4980523;28;20030;-78
2023/12/29 14:07:18;;;;;;;0.95;0.85;;;14.00;96.30;;;;;;4994747;28;20029;-79
2023/12/29 14:20:41;;;;;;;1.55;1.20;;;13.60;99.90;;;;;;4919629;29;20036;-78
2023/12/29 14:26:56;;;;;;;2.00;0.93;;;13.40;99.90;;;;;;4928778;29;20078;-78
2023/12/29 14:53:21;;;;;;;0.50;0.50;;;12.70;99.90;;;;;;4827134;29;20091;-78
2023/12/29 14:56:02;;;;;;;0.55;0.50;;;12.60;99.90;;;;;;4839177;29;20044;-78
2023/12/29 15:12:31;;;;;;;0.82;0.82;;;12.30;99.90;;;;;;4886438;29;20135;-78
2023/12/29 15:25:38;;;;;;;;;;;;;;;;;;;;;
2023/12/29 15:35:31;;;;;;;0.43;0.43;;;12.00;99.90;;;;;;4863560;29;20137;-77
2023/12/29 15:48:07;;;;;;;0.63;0.40;;;11.90;99.90;;;;;;4902958;29;20082;-77
2023/12/29 16:04:11;;;;;;;0.77;0.55;;;11.70;99.90;;;;;;4960011;28;20039;-76
2023/12/29 16:06:45;;;;;;;0.80;0.30;;;11.60;99.90;;;;;;5001152;28;20330;-77
2023/12/29 16:10:15;;;;;;;0.40;0.40;;;11.50;99.90;;;;;;5000207;28;20105;-77
2023/12/29 16:17:04;;;;;;;1.15;0.57;;;11.40;99.90;;;;;;5002077;28;20251;-77
2023/12/29 16:48:04;;;;;;;;;;;;;;;;;;;;;
2023/12/29 16:51:52;;;;;;;1.40;0.90;;;10.80;99.90;;;;;;4902844;29;20120;-79
2023/12/29 16:54:51;;;;;;;0.98;0.90;;;10.60;99.90;;;;;;4894647;29;20036;-78
2023/12/29 17:29:18;;;;;;;1.85;1.65;;;9.20;99.90;;;;;;4775044;30;20083;-79
2023/12/29 18:09:35;;;;;;;3.85;2.10;;;8.10;99.90;;;;;;4881561;29;20111;-79
2023/12/29 18:16:16;;;;;;;5.75;3.80;;;8.00;99.90;;;;;;4832480;29;20276;-77
2023/12/29 18:25:45;;;;;;;6.07;2.33;;;8.10;99.90;;;;;;4831496;29;20217;-79
2023/12/29 18:32:26;;;;;;;4.25;2.45;;;8.50;99.90;;;;;;4831978;29;20034;-77
2023/12/29 18:41:48;;;;;;;3.00;1.85;;;8.70;99.90;;;;;;4868467;29;20268;-78
2023/12/29 18:55:46;;;;;;;;;;;;;;;;;;;;;
2023/12/29 19:02:21;;;;;;;;;;;;;;;;;;;;;
2023/12/29 19:15:55;;;;;;;;;;;;;;;;;;;;;
2023/12/29 19:25:13;;;;;;;3.10;1.30;;;9.20;99.90;;;;;;4950276;28;20095;-77
2023/12/29 19:27:39;;;;;;;2.20;1.40;;;9.20;99.90;;;;;;4965669;28;20030;-77
2023/12/29 19:30:05;;;;;;;0.98;0.90;;;9.20;99.90;;;;;;5016291;28;20037;-76
2023/12/29 19:32:31;;;;;;;1.83;0.98;;;9.30;99.90;;;;;;5002197;28;20038;-77
2023/12/29 19:34:57;;;;;;;1.20;1.10;;;9.30;99.90;;;;;;4989701;28;20014;-77
2023/12/29 19:37:23;;;;;;;0.88;0.88;;;9.40;99.90;;;;;;4998945;28;20026;-77
2023/12/29 19:39:48;;;;;;;1.17;0.98;;;9.40;99.90;;;;;;5001144;28;20049;-77
2023/12/29 19:42:35;;;;;;;0.90;0.90;;;9.40;99.90;;;;;;5001366;28;20053;-78
2023/12/29 19:45:06;;;;;;;3.70;1.20;;;9.30;99.90;;;;;;4998352;28;20061;-79
2023/12/29 19:47:33;;;;;;;1.60;0.63;;;9.30;99.90;;;;;;4984927;28;20030;-77
2023/12/29 19:50:30;;;;;;;0.95;0.80;;;9.20;99.90;;;;;;5002164;28;20029;-79
2023/12/29 19:53:20;;;;;;;1.00;0.82;;;9.20;99.90;;;;;;4976807;28;20120;-77
2023/12/29 19:55:46;;;;;;;2.05;0.80;;;9.20;99.90;;;;;;4981583;28;20019;-77
2023/12/29 19:58:12;;;;;;;1.00;0.73;;;9.20;99.90;;;;;;4967872;28;20086;-77
2023/12/29 20:00:38;;;;;;;0.95;0.77;;;9.20;99.90;;;;;;4982571;28;20033;-78
2023/12/29 20:03:04;;;;;;;3.00;2.08;;;9.20;99.90;;;;;;4996939;28;20026;-76
2023/12/29 20:05:30;;;;;;;2.85;1.25;;;9.30;99.90;;;;;;4999822;28;20018;-78
2023/12/29 20:08:04;;;;;;;3.63;1.20;;;9.30;99.90;;;;;;5000813;28;20022;-78
2023/12/29 20:10:29;;;;;;;0.88;0.85;;;9.30;99.90;;;;;;4998765;28;20027;-78
2023/12/29 20:12:55;;;;;;;1.00;1.00;;;9.40;99.90;;;;;;5001752;28;20045;-76
2023/12/29 20:15:21;;;;;;;2.25;0.63;;;9.40;99.90;;;;;;4977698;28;20326;-76
2023/12/29 20:17:47;;;;;;;1.73;1.00;;;9.50;99.90;;;;;;4999113;28;20026;-77
2023/12/29 20:20:48;;;;;;;1.58;1.02;;;9.50;99.90;;;;;;5010310;28;20018;-79
2023/12/29 20:23:24;;;;;;;0.50;0.50;;;9.40;99.90;;;;;;5010848;28;20085;-79
2023/12/29 20:25:54;;;;;;;0.75;0.60;;;9.40;99.90;;;;;;5013431;28;20026;-78
2023/12/29 20:28:46;;;;;;;1.00;1.00;;;9.40;99.90;;;;;;5010726;28;20226;-78
2023/12/29 20:32:11;;;;;;;1.10;0.90;;;9.40;99.90;;;;;;5026328;28;20041;-79
2023/12/29 20:34:58;;;;;;;1.50;0.85;;;9.50;99.90;;;;;;4957709;28;20023;-78
2023/12/29 20:37:46;;;;;;;0.60;0.60;;;9.40;99.90;;;;;;4960708;28;20023;-77
2023/12/29 20:40:18;;;;;;;2.13;0.90;;;9.40;99.90;;;;;;4969269;28;20019;-77
2023/12/29 20:50:10;;;;;;;0.73;0.73;;;9.40;99.90;;;;;;4958250;28;20070;-78
2023/12/29 20:56:39;;;;;;;1.35;1.20;;;9.30;99.90;;;;;;4933667;29;20043;-79
2023/12/29 20:59:07;;;;;;;2.63;0.90;;;9.20;99.90;;;;;;4923136;28;20035;-77
2023/12/29 21:01:33;;;;;;;4.45;0.90;;;9.40;99.90;;;;;;4972737;28;20059;-78
2023/12/29 21:04:02;;;;;;;2.35;1.48;;;9.40;99.90;;;;;;5016763;28;20114;-80
2023/12/29 21:10:22;;;;;;;3.13;1.10;;;9.40;99.90;;;;;;4940869;29;20110;-76
2023/12/29 21:12:47;;;;;;;0.90;0.90;;;9.30;99.90;;;;;;4881447;29;20662;-76
2023/12/29 21:15:26;;;;;;;1.30;1.20;;;9.30;99.90;;;;;;5028311;28;20105;-76
2023/12/29 21:17:52;;;;;;;0.80;0.80;;;9.30;99.90;;;;;;5042160;28;20027;-78
2023/12/29 21:20:18;;;;;;;1.75;1.00;;;9.40;99.90;;;;;;5044588;28;20049;-77
2023/12/29 21:22:46;;;;;;;1.73;1.20;;;9.40;99.90;;;;;;5041890;28;20025;-78
2023/12/29 21:25:12;;;;;;;2.38;1.67;;;9.40;99.90;;;;;;5038405;28;20021;-78
2023/12/29 21:27:38;;;;;;;1.58;1.10;;;9.50;99.90;;;;;;5044958;28;20415;-79
2023/12/29 21:30:05;;;;;;;1.05;0.82;;;9.40;99.90;;;;;;5046946;28;20054;-79
2023/12/29 21:32:33;;;;;;;1.85;1.17;;;9.40;99.90;;;;;;5045521;28;20045;-78
2023/12/29 21:34:59;;;;;;;1.60;1.25;;;9.40;99.90;;;;;;5043377;28;20028;-77
2023/12/29 21:37:25;;;;;;;2.05;1.50;;;9.40;99.90;;;;;;5024921;28;20322;-77
2023/12/29 21:39:52;;;;;;;1.60;1.50;;;9.40;99.90;;;;;;5042523;28;20025;-77
2023/12/29 21:42:19;;;;;;;1.23;1.13;;;9.40;99.90;;;;;;5042512;28;20026;-79
2023/12/29 21:44:45;;;;;;;2.45;1.52;;;9.30;99.90;;;;;;5024789;28;20063;-78
2023/12/29 21:47:11;;;;;;;6.40;1.50;;;9.30;99.90;;;;;;5042532;28;20021;-76
2023/12/29 21:49:39;;;;;;;1.08;0.95;;;9.40;99.90;;;;;;5024575;28;20252;-78
2023/12/29 21:52:06;;;;;;;1.52;1.00;;;9.30;99.90;;;;;;5024276;28;20045;-78
2023/12/29 21:54:34;;;;;;;1.35;0.88;;;9.40;99.90;;;;;;5042845;28;20333;-78
2023/12/29 21:57:04;;;;;;;1.00;0.90;;;9.30;99.90;;;;;;5025138;28;20392;-77
2023/12/29 21:59:57;;;;;;;4.55;1.80;;;9.20;99.90;;;;;;5028384;28;20030;-77
2023/12/29 22:02:30;;;;;;;2.25;1.10;;;9.20;99.90;;;;;;5020109;28;20030;-77
2023/12/29 22:08:38;;;;;;;0.80;0.80;;;9.10;99.90;;;;;;4982538;28;20520;-77
2023/12/29 22:11:04;;;;;;;0.80;0.60;;;9.00;99.90;;;;;;4967334;28;20047;-78
2023/12/29 22:13:30;;;;;;;1.13;0.98;;;8.90;99.90;;;;;;4982305;28;20101;-77
2023/12/29 22:15:56;;;;;;;0.40;0.40;;;9.10;99.90;;;;;;4997643;28;20133;-77
2023/12/29 22:18:22;;;;;;;2.28;0.88;;;9.20;99.90;;;;;;5021236;28;20064;-78
2023/12/29 22:20:48;;;;;;;0.70;0.70;;;9.10;99.90;;;;;;5021491;28;20037;-77
2023/12/29 22:23:23;;;;;;;1.35;0.65;;;9.20;99.90;;;;;;5005149;28;20100;-77
2023/12/29 22:25:48;;;;;;;4.18;1.10;;;9.10;99.90;;;;;;5021063;28;20029;-78
2023/12/29 22:28:14;;;;;;;4.78;1.30;;;9.20;99.90;;;;;;5000389;28;20038;-78
2023/12/29 22:30:45;;;;;;;1.20;1.05;;;9.20;99.90;;;;;;5001298;28;20030;-76
2023/12/29 22:33:40;;;;;;;1.25;0.90;;;9.20;99.90;;;;;;5000901;28;20031;-77
2023/12/29 22:36:18;;;;;;;1.40;1.00;;;9.10;99.90;;;;;;4993423;28;20125;-79
2023/12/29 22:38:44;;;;;;;3.40;0.88;;;9.10;99.90;;;;;;5003202;28;20022;-78
2023/12/29 22:41:53;;;;;;;0.85;0.60;;;9.10;99.90;;;;;;5002769;28;20026;-77
2023/12/29 22:44:18;;;;;;;3.03;0.63;;;9.10;99.90;;;;;;4928137;28;20111;-77
2023/12/29 22:47:13;;;;;;;3.10;0.82;;;9.00;99.90;;;;;;5003195;28;20022;-78
2023/12/29 22:53:24;;;;;;;2.40;0.90;;;8.90;99.90;;;;;;5000218;28;20503;-77
2023/12/29 23:03:04;;;;;;;0.80;0.80;;;8.30;99.90;;;;;;4961558;29;20033;-75
2023/12/29 23:05:34;;;;;;;2.08;0.55;;;8.10;99.90;;;;;;4981744;28;20034;-79
2023/12/29 23:08:00;;;;;;;0.95;0.70;;;8.20;99.90;;;;;;5006793;28;20121;-80
2023/12/29 23:11:11;;;;;;;2.10;1.38;;;8.40;99.90;;;;;;5006793;28;20419;-78
2023/12/29 23:16:42;;;;;;;0.70;0.70;;;8.40;99.90;;;;;;4991801;28;20041;-83
2023/12/29 23:19:25;;;;;;;3.40;1.45;;;8.20;99.90;;;;;;5008905;28;20026;-81
2023/12/29 23:22:07;;;;;;;1.08;0.70;;;8.10;99.90;;;;;;5002397;28;20030;-74
2023/12/29 23:24:38;;;;;;;1.75;0.80;;;8.10;99.90;;;;;;5006265;28;20018;-80
2023/12/29 23:27:04;;;;;;;1.45;1.17;;;8.10;99.90;;;;;;5007235;28;20026;-78
2023/12/29 23:29:30;;;;;;;1.67;1.30;;;8.20;99.90;;;;;;5032943;28;20072;-79
2023/12/29 23:31:55;;;;;;;2.42;0.60;;;8.40;99.90;;;;;;5041516;28;20040;-79
2023/12/29 23:34:21;;;;;;;1.35;0.85;;;8.50;99.90;;;;;;5043281;28;20021;-81
2023/12/29 23:36:55;;;;;;;1.00;0.95;;;8.60;99.90;;;;;;5054770;28;20017;-78
2023/12/29 23:39:24;;;;;;;2.00;0.70;;;8.70;99.90;;;;;;5054989;28;20029;-76
2023/12/29 23:41:53;;;;;;;1.98;1.55;;;8.80;99.90;;;;;;5052725;28;20032;-76
2023/12/29 23:44:19;;;;;;;1.15;0.70;;;8.80;99.90;;;;;;5047827;28;20032;-81
2023/12/29 23:46:44;;;;;;;2.10;0.60;;;8.80;99.90;;;;;;5040977;28;20041;-80
2023/12/29 23:49:10;;;;;;;1.65;0.80;;;8.90;99.90;;;;;;5041747;28;20025;-81
2023/12/29 23:51:38;;;;;;;0.30;0.25;;;9.00;99.90;;;;;;5043238;28;20100;-77
2023/12/29 23:54:03;;;;;;;3.72;0.70;;;9.10;99.90;;;;;;5046000;28;20021;-83
2023/12/29 23:56:57;;;;;;;1.17;0.60;;;9.10;99.90;;;;;;5050084;28;20248;-78
2023/12/29 23:59:23;;;;;;;2.15;0.85;;;9.10;99.90;;;;;;5034917;28;20045;-80
